Lowell, Idaho
Current Conditions -  °F | °C
As of 11:55 AM on Tuesday 21 Oct 2014 (Local Time) from KGIC Reporting Station
Overcast Overcast  
Wind Chill: 45°   Ceiling: 8500
Heat Index: 50°   Visibility: 10mi
Dew Point: 41°   Wind: 13mph
Humidity: 73%   Direction: 240°WSW
Pressure: 30.01"   Gusts: 17mph
Location:  46.2989°N, 115.619°W
Report Text: KGIC 211855Z AUTO 24011G15KT 10SM OVC085 10/05 A3001 RMK AO1 T00990052
Loading
Personal Weather Stations






























Interactive Weather Map
Tropical Storm Tracking
New forecast layout! Learn more

10-Day Weather Forecast

Advertisements
Track Severe Weather on mobile